Time;durP1;ratioP1;P1;durP2;ratioP2;P2;SDS_P1;SDS_P2;PMS_P1;PMS_P2;Temp;Humidity;BMP_temperature;BMP_pressure;BME280_temperature;BME280_humidity;BME280_pressure;Samples;Min_cycle;Max_cycle;Signal;HPM_P1;HPM_P2
2021/06/02 00:01:18;;;;;;;7.13;6.40;;;;;;;23.00;60.36;101178.03;4998919;28;20099;-67
2021/06/02 00:03:46;;;;;;;8.07;6.22;;;;;;;23.01;60.39;101173.50;5002751;28;20414;-67
2021/06/02 00:06:12;;;;;;;7.07;6.07;;;;;;;23.02;60.26;101175.97;5004500;28;20038;-67
2021/06/02 00:08:38;;;;;;;6.88;6.18;;;;;;;23.02;60.23;101173.28;4993491;28;20046;-67
2021/06/02 00:11:07;;;;;;;7.00;6.18;;;;;;;23.02;60.41;101167.94;4994417;28;20034;-68
2021/06/02 00:13:35;;;;;;;6.85;6.15;;;;;;;23.02;60.47;101167.94;4992876;28;20038;-67
2021/06/02 00:16:02;;;;;;;8.13;6.20;;;;;;;23.04;60.63;101165.09;4993516;28;20141;-68
2021/06/02 00:18:28;;;;;;;7.60;6.07;;;;;;;23.04;60.34;101162.41;4997797;28;20096;-67
2021/06/02 00:20:56;;;;;;;8.20;6.60;;;;;;;23.05;60.52;101171.25;4994629;28;20046;-68
2021/06/02 00:23:21;;;;;;;6.63;5.93;;;;;;;23.05;60.33;101177.44;4975702;28;20043;-68
2021/06/02 00:25:48;;;;;;;7.93;6.15;;;;;;;23.05;60.41;101172.06;4994310;28;20390;-67
2021/06/02 00:28:16;;;;;;;7.78;6.03;;;;;;;23.05;60.52;101169.41;4988890;28;20042;-67
2021/06/02 00:30:44;;;;;;;8.68;6.32;;;;;;;23.06;60.65;101165.69;4995802;28;20038;-67
2021/06/02 00:33:10;;;;;;;7.10;6.40;;;;;;;23.07;60.54;101163.84;4993063;28;20125;-68
2021/06/02 00:35:38;;;;;;;7.40;6.32;;;;;;;23.07;60.45;101167.31;4992360;28;20047;-68
2021/06/02 00:38:03;;;;;;;7.10;6.40;;;;;;;23.07;60.46;101155.81;4988372;28;20046;-67
2021/06/02 00:40:43;;;;;;;6.88;5.88;;;;;;;23.06;60.73;101156.84;4993130;28;20045;-68
2021/06/02 00:43:09;;;;;;;7.22;6.05;;;;;;;23.07;60.62;101153.13;4996614;28;20034;-67
2021/06/02 00:45:35;;;;;;;7.88;6.13;;;;;;;23.07;60.32;101155.81;4988422;28;20125;-67
2021/06/02 00:48:02;;;;;;;7.43;6.10;;;;;;;23.08;60.56;101149.41;5001848;28;20470;-67
2021/06/02 00:50:30;;;;;;;9.52;6.25;;;;;;;23.07;60.47;101145.91;5003647;28;20073;-67
2021/06/02 00:52:56;;;;;;;7.70;6.13;;;;;;;23.07;60.39;101150.44;4997519;28;20149;-67
2021/06/02 00:55:22;;;;;;;6.93;5.72;;;;;;;23.08;60.49;101152.09;4997926;28;20041;-68
2021/06/02 00:57:49;;;;;;;7.05;6.20;;;;;;;23.08;60.50;101152.09;4996492;28;20038;-67
2021/06/02 01:00:16;;;;;;;6.35;5.75;;;;;;;23.08;60.44;101152.91;4996382;28;20121;-68
2021/06/02 01:02:47;;;;;;;6.43;5.82;;;;;;;23.07;60.43;101145.09;5003185;28;20034;-68
2021/06/02 01:05:14;;;;;;;6.00;5.40;;;;;;;23.09;60.79;101146.53;5005461;28;20057;-68
2021/06/02 01:07:40;;;;;;;6.80;6.10;;;;;;;23.09;60.47;101149.19;4992035;28;20058;-68
2021/06/02 01:10:06;;;;;;;7.45;6.35;;;;;;;23.09;60.82;101154.56;5002104;28;20203;-68
2021/06/02 01:12:32;;;;;;;7.03;6.25;;;;;;;23.09;60.56;101151.06;5005027;28;20152;-68
2021/06/02 01:14:59;;;;;;;6.75;5.90;;;;;;;23.09;60.21;101145.72;4999166;28;20646;-68
2021/06/02 01:17:27;;;;;;;6.70;5.85;;;;;;;23.09;60.63;101143.03;4997443;28;20042;-68
2021/06/02 01:19:55;;;;;;;6.65;5.72;;;;;;;23.09;60.66;101143.84;5008963;28;20033;-68
2021/06/02 01:22:21;;;;;;;6.95;5.75;;;;;;;23.09;60.42;101145.72;5005205;28;20091;-68
2021/06/02 01:24:47;;;;;;;6.07;5.45;;;;;;;23.10;60.63;101139.31;5003602;28;20527;-68
2021/06/02 01:27:14;;;;;;;6.57;5.88;;;;;;;23.10;60.31;101147.34;4990602;28;20133;-68
2021/06/02 01:29:43;;;;;;;6.60;5.82;;;;;;;23.10;60.58;101142.81;4999555;28;20166;-67
2021/06/02 01:32:45;;;;;;;6.32;5.72;;;;;;;23.06;60.76;101146.94;5009056;28;20344;-68
2021/06/02 01:35:55;;;;;;;5.80;5.18;;;;;;;23.04;60.82;101138.31;4997691;28;20026;-68
2021/06/02 01:38:48;;;;;;;5.90;5.30;;;;;;;23.07;60.56;101142.41;4948510;28;20534;-68
2021/06/02 01:41:21;;;;;;;6.13;5.47;;;;;;;23.09;60.84;101135.00;4944455;28;20046;-68
2021/06/02 01:43:49;;;;;;;5.60;5.10;;;;;;;23.10;60.39;101140.13;4992393;28;20038;-68
2021/06/02 01:46:53;;;;;;;6.30;5.70;;;;;;;23.07;60.58;101134.41;5008309;28;20361;-68
2021/06/02 01:49:21;;;;;;;5.88;5.30;;;;;;;23.09;60.53;101133.16;5007422;28;20469;-68
2021/06/02 01:52:14;;;;;;;6.28;5.68;;;;;;;23.07;60.56;101132.53;5007271;28;20092;-68
2021/06/02 01:55:17;;;;;;;5.78;4.97;;;;;;;23.08;60.77;101128.81;5008447;28;20414;-68
2021/06/02 01:58:07;;;;;;;6.50;5.70;;;;;;;23.10;60.33;101131.28;4996839;28;20034;-68
2021/06/02 02:00:54;;;;;;;6.22;5.50;;;;;;;23.07;60.77;101129.03;5008097;28;20040;-68
2021/06/02 02:03:53;;;;;;;6.18;5.30;;;;;;;23.08;60.76;101126.16;5003191;28;20084;-68
2021/06/02 02:06:37;;;;;;;7.30;5.40;;;;;;;23.11;60.47;101125.72;4996702;28;20029;-68
2021/06/02 02:09:17;;;;;;;6.65;5.38;;;;;;;23.08;60.61;101123.47;4995449;28;20099;-68
2021/06/02 02:11:43;;;;;;;5.90;5.30;;;;;;;23.12;60.29;101118.50;4990102;28;20378;-68
2021/06/02 02:14:30;;;;;;;6.30;5.45;;;;;;;23.10;60.57;101124.09;4994944;28;20034;-68
2021/06/02 02:17:33;;;;;;;6.05;5.30;;;;;;;23.08;60.83;101109.28;5005698;28;20069;-68
2021/06/02 02:20:12;;;;;;;6.10;5.50;;;;;;;23.11;60.58;101117.69;5004099;28;20363;-68
2021/06/02 02:22:37;;;;;;;7.10;5.50;;;;;;;23.12;60.41;101115.84;5001181;28;20100;-68
2021/06/02 02:25:05;;;;;;;6.72;5.57;;;;;;;23.12;60.75;101108.63;4988089;28;20478;-68
2021/06/02 02:27:49;;;;;;;6.38;5.03;;;;;;;23.13;60.33;101109.44;4993386;28;20046;-68
2021/06/02 02:30:31;;;;;;;5.90;5.30;;;;;;;23.10;60.76;101099.19;5012177;28;20049;-68
2021/06/02 02:33:02;;;;;;;5.68;5.00;;;;;;;23.12;60.59;101097.94;5009505;28;20087;-68
2021/06/02 02:35:51;;;;;;;6.78;5.63;;;;;;;23.10;60.46;101104.53;4994199;28;20061;-68
2021/06/02 02:38:40;;;;;;;5.55;5.03;;;;;;;23.11;60.61;101108.84;5005267;28;20446;-68
2021/06/02 02:41:43;;;;;;;6.45;5.18;;;;;;;23.10;60.91;101104.53;4999147;28;20100;-68
2021/06/02 02:44:32;;;;;;;5.13;4.60;;;;;;;23.11;60.76;101095.47;5001554;28;20034;-68
2021/06/02 02:47:35;;;;;;;7.03;5.40;;;;;;;23.09;60.61;101095.69;4998192;28;20096;-68
2021/06/02 02:50:42;;;;;;;5.53;5.03;;;;;;;23.09;61.00;101090.34;5009723;28;20239;-68
2021/06/02 02:53:20;;;;;;;6.50;5.00;;;;;;;23.13;60.37;101090.72;4943672;29;20057;-68
2021/06/02 02:55:55;;;;;;;5.47;4.97;;;;;;;23.13;60.67;101078.16;5003959;28;20113;-68
2021/06/02 02:58:38;;;;;;;5.18;4.68;;;;;;;23.12;60.46;101081.06;5006308;28;20040;-68
2021/06/02 03:01:45;;;;;;;5.82;5.22;;;;;;;23.10;60.78;101075.91;5000568;28;20180;-68
2021/06/02 03:04:25;;;;;;;6.57;5.13;;;;;;;23.11;60.53;101069.53;4973647;28;20104;-68
2021/06/02 03:06:57;;;;;;;5.30;4.80;;;;;;;23.14;60.87;101076.31;5009006;28;20437;-68
2021/06/02 03:09:49;;;;;;;5.32;4.82;;;;;;;23.11;60.70;101063.34;5005248;28;20386;-68
2021/06/02 03:12:17;;;;;;;6.07;5.45;;;;;;;23.14;60.40;101061.06;5007814;28;20161;-68
2021/06/02 03:15:04;;;;;;;6.25;4.85;;;;;;;23.11;60.75;101061.50;4995322;28;20055;-68
2021/06/02 03:17:54;;;;;;;5.93;4.65;;;;;;;23.12;60.58;101055.09;5001276;28;20034;-68
2021/06/02 03:20:23;;;;;;;5.40;4.78;;;;;;;23.15;60.72;101065.38;5006015;28;20140;-68
2021/06/02 03:23:01;;;;;;;5.60;5.05;;;;;;;23.13;60.77;101061.28;5007031;28;20037;-68
2021/06/02 03:25:34;;;;;;;5.90;5.30;;;;;;;23.16;60.80;101063.53;5012788;28;20089;-68
2021/06/02 03:28:06;;;;;;;5.50;4.63;;;;;;;23.14;60.61;101066.41;5005640;28;20563;-68
2021/06/02 03:30:36;;;;;;;5.43;4.90;;;;;;;23.16;60.62;101063.53;4996625;28;20172;-68
2021/06/02 03:33:30;;;;;;;5.55;4.93;;;;;;;23.13;61.00;101053.25;5008071;28;20049;-68
2021/06/02 03:36:15;;;;;;;6.22;4.97;;;;;;;23.13;60.96;101063.97;5008392;28;20036;-68
2021/06/02 03:38:55;;;;;;;7.65;5.03;;;;;;;23.13;60.71;101058.59;5003783;28;20132;-68
2021/06/02 03:41:42;;;;;;;5.43;4.93;;;;;;;23.13;60.67;101062.09;5008214;28;20219;-68
2021/06/02 03:44:22;;;;;;;5.00;4.50;;;;;;;23.13;60.86;101063.97;5008399;28;20037;-68
2021/06/02 03:47:13;;;;;;;5.40;4.85;;;;;;;23.16;60.71;101066.19;5003821;28;20092;-68
2021/06/02 03:50:05;;;;;;;5.30;4.80;;;;;;;23.16;60.67;101060.84;5003965;28;20042;-68
2021/06/02 03:53:01;;;;;;;5.22;4.72;;;;;;;23.13;60.57;101055.94;4996062;28;20493;-68
2021/06/02 03:55:48;;;;;;;5.07;4.57;;;;;;;23.13;60.78;101058.59;4995972;28;20054;-68
2021/06/02 03:58:32;;;;;;;5.55;5.05;;;;;;;23.13;60.64;101061.28;5006691;28;20053;-68
2021/06/02 04:01:30;;;;;;;6.60;5.38;;;;;;;23.11;60.44;101058.81;5010195;28;20494;-68
2021/06/02 04:04:20;;;;;;;5.35;4.85;;;;;;;23.14;60.57;101053.03;4981210;28;20069;-68
2021/06/02 04:06:48;;;;;;;5.13;4.60;;;;;;;23.16;60.55;101052.81;4981313;28;20037;-68
2021/06/02 04:09:26;;;;;;;5.28;4.75;;;;;;;23.14;60.75;101063.75;5008539;28;20045;-68
2021/06/02 04:12:12;;;;;;;5.40;4.60;;;;;;;23.12;60.76;101057.78;5006672;28;20115;-68
2021/06/02 04:14:42;;;;;;;5.65;4.55;;;;;;;23.16;60.72;101064.34;5008070;28;20026;-68
2021/06/02 04:17:08;;;;;;;5.25;4.50;;;;;;;23.15;60.47;101057.34;5001473;28;20073;-68
2021/06/02 04:19:35;;;;;;;5.75;4.50;;;;;;;23.17;60.28;101055.28;5008024;28;20135;-68
2021/06/02 04:22:06;;;;;;;8.30;4.93;;;;;;;23.17;60.53;101054.47;5007911;28;20041;-68
2021/06/02 04:24:33;;;;;;;6.03;4.70;;;;;;;23.18;60.73;101054.25;5008427;28;20045;-68
2021/06/02 04:27:00;;;;;;;5.50;4.95;;;;;;;23.18;60.83;101050.75;5002019;28;20044;-68
2021/06/02 04:29:27;;;;;;;4.90;4.35;;;;;;;23.17;60.71;101060.63;4990084;28;20169;-68
2021/06/02 04:32:07;;;;;;;5.22;4.72;;;;;;;23.16;60.82;101053.63;4985283;28;20705;-68
2021/06/02 04:34:34;;;;;;;5.15;4.35;;;;;;;23.18;60.64;101062.28;5009533;28;20034;-68
2021/06/02 04:37:02;;;;;;;5.40;4.60;;;;;;;23.19;60.78;101068.44;5002068;28;20038;-68
2021/06/02 04:39:29;;;;;;;5.15;4.65;;;;;;;23.19;60.92;101060.41;5008575;28;20075;-68
2021/06/02 04:42:00;;;;;;;5.82;4.70;;;;;;;23.18;60.39;101062.28;5004260;28;20076;-68
2021/06/02 04:44:28;;;;;;;4.75;4.30;;;;;;;23.19;60.69;101049.72;5007610;28;20088;-68
2021/06/02 04:46:54;;;;;;;5.43;4.60;;;;;;;23.19;60.45;101050.53;5005735;28;20034;-68
2021/06/02 04:49:25;;;;;;;4.88;4.38;;;;;;;23.19;60.51;101041.69;5006120;28;20528;-68
2021/06/02 04:52:01;;;;;;;6.13;4.70;;;;;;;23.20;60.58;101046.03;4999126;28;20050;-68
2021/06/02 04:54:45;;;;;;;4.75;4.25;;;;;;;23.16;60.42;101042.94;4999008;28;20081;-68
2021/06/02 04:57:22;;;;;;;;;;;;;;;23.11;60.68;101050.78;4997207;28;20030;-68
2021/06/02 05:00:25;;;;;;;4.70;4.03;;;;;;;23.15;60.77;101054.69;5017608;28;19968;-68
2021/06/02 05:03:28;;;;;;;5.05;4.28;;;;;;;23.15;60.56;101043.97;4998040;28;20057;-68
2021/06/02 05:06:31;;;;;;;5.07;4.47;;;;;;;23.14;60.70;101047.69;5003802;28;20038;-68
2021/06/02 05:09:42;;;;;;;5.20;4.38;;;;;;;23.14;60.61;101042.34;5004913;28;20338;-68
2021/06/02 05:12:46;;;;;;;5.82;4.70;;;;;;;23.14;60.50;101039.66;4957735;28;20049;-68
2021/06/02 05:15:30;;;;;;;;;;;;;;;23.10;60.72;101049.16;5001453;28;20025;-68
2021/06/02 05:18:14;;;;;;;5.97;4.88;;;;;;;23.17;60.40;101041.91;4998157;28;19972;-68
2021/06/02 05:24:03;;;;;;;5.30;4.65;;;;;;;23.15;60.57;101037.78;5001974;28;20762;-68
2021/06/02 05:26:40;;;;;;;4.43;4.00;;;;;;;23.15;60.56;101048.50;5001346;28;20065;-68
2021/06/02 05:29:24;;;;;;;5.32;4.50;;;;;;;23.16;60.56;101053.63;4999872;28;20489;-68
2021/06/02 05:32:27;;;;;;;5.53;4.18;;;;;;;23.15;60.54;101043.16;4998506;28;20034;-68
2021/06/02 05:35:15;;;;;;;5.05;4.55;;;;;;;23.14;60.40;101044.19;4997226;28;20033;-68
2021/06/02 05:38:07;;;;;;;5.38;4.60;;;;;;;23.16;60.69;101045.59;5006029;28;20034;-69
2021/06/02 05:41:11;;;;;;;5.55;4.25;;;;;;;23.15;60.50;101045.81;5006909;28;20059;-69
2021/06/02 05:44:10;;;;;;;4.97;4.38;;;;;;;23.15;60.64;101056.53;5001456;28;20507;-69
2021/06/02 05:47:13;;;;;;;5.28;4.57;;;;;;;23.15;60.33;101056.53;4998510;28;20466;-69
2021/06/02 05:49:56;;;;;;;4.82;4.30;;;;;;;23.18;60.64;101051.56;5005742;28;20040;-68
2021/06/02 05:52:47;;;;;;;5.72;4.47;;;;;;;23.17;60.45;101049.94;5002012;28;20129;-70
2021/06/02 05:55:44;;;;;;;5.18;4.35;;;;;;;23.16;60.52;101045.59;4995474;28;20029;-69
2021/06/02 05:58:28;;;;;;;5.05;4.50;;;;;;;23.16;60.54;101048.28;4991739;28;20489;-69
2021/06/02 06:01:27;;;;;;;6.40;4.50;;;;;;;23.16;60.61;101048.28;4994330;28;20085;-69
2021/06/02 06:04:05;;;;;;;4.90;4.40;;;;;;;23.18;60.36;101050.75;4994262;28;20037;-68
2021/06/02 06:06:43;;;;;;;5.40;4.82;;;;;;;23.18;60.22;101054.25;4999946;28;20033;-69
2021/06/02 06:09:46;;;;;;;5.50;4.15;;;;;;;23.17;60.54;101049.09;4992083;28;20442;-69
2021/06/02 06:12:17;;;;;;;5.00;4.50;;;;;;;23.20;60.44;101057.56;4995269;28;20022;-69
2021/06/02 06:15:24;;;;;;;5.45;4.32;;;;;;;23.17;60.46;101052.59;5001098;28;20026;-69
2021/06/02 06:18:10;;;;;;;4.90;4.00;;;;;;;23.20;60.34;101048.69;4992709;28;20118;-68
2021/06/02 06:20:42;;;;;;;4.80;4.30;;;;;;;23.20;60.36;101051.38;5002258;28;20133;-69
2021/06/02 06:23:38;;;;;;;4.97;4.45;;;;;;;23.16;60.45;101048.28;4990695;28;20022;-69
2021/06/02 06:26:26;;;;;;;5.57;4.45;;;;;;;23.17;60.57;101043.75;5003866;28;20046;-69
2021/06/02 06:29:01;;;;;;;5.43;4.30;;;;;;;23.20;60.23;101043.34;5005533;28;20045;-69
2021/06/02 06:31:31;;;;;;;4.95;4.20;;;;;;;23.20;60.28;101046.84;5001978;28;20061;-69
2021/06/02 06:34:03;;;;;;;6.28;4.65;;;;;;;23.21;60.30;101043.13;5002153;28;20033;-69
2021/06/02 06:36:31;;;;;;;6.05;4.30;;;;;;;23.22;60.21;101046.63;5000241;28;20379;-69
2021/06/02 06:39:02;;;;;;;4.80;4.30;;;;;;;23.22;60.47;101035.91;5004982;28;20045;-67
2021/06/02 06:41:30;;;;;;;5.13;4.05;;;;;;;23.23;60.34;101042.91;5002816;28;20026;-68
2021/06/02 06:43:57;;;;;;;7.50;4.18;;;;;;;23.21;60.44;101043.13;5008514;28;20046;-68
2021/06/02 06:46:25;;;;;;;11.77;4.50;;;;;;;23.21;59.96;101036.97;5006867;28;20109;-69
2021/06/02 06:48:52;;;;;;;10.35;4.25;;;;;;;23.20;59.92;101033.47;5006945;28;20030;-70
2021/06/02 06:51:23;;;;;;;7.32;4.43;;;;;;;23.17;59.35;101039.22;5005282;28;20104;-69
2021/06/02 06:53:51;;;;;;;5.90;4.60;;;;;;;23.17;59.38;101038.41;5003888;28;20026;-67
2021/06/02 06:56:19;;;;;;;7.38;4.68;;;;;;;23.16;58.70;101042.13;5009288;28;20057;-68
2021/06/02 06:58:45;;;;;;;8.75;4.80;;;;;;;23.13;58.36;101040.69;4978499;28;20397;-68
2021/06/02 07:01:16;;;;;;;6.95;4.70;;;;;;;23.13;58.58;101043.38;5002470;28;20038;-68
2021/06/02 07:03:43;;;;;;;6.18;4.53;;;;;;;23.13;58.29;101040.69;4991870;28;20120;-68
2021/06/02 07:06:12;;;;;;;11.15;5.10;;;;;;;23.12;58.17;101044.41;5006449;28;20071;-68
2021/06/02 07:08:41;;;;;;;11.82;4.93;;;;;;;23.10;57.71;101051.84;5008461;28;20105;-67
2021/06/02 07:11:06;;;;;;;11.30;4.40;;;;;;;23.10;57.55;101048.34;4998322;28;20065;-68
2021/06/02 07:13:33;;;;;;;12.88;5.03;;;;;;;23.08;57.61;101045.06;5001342;28;20131;-68
2021/06/02 07:16:01;;;;;;;16.20;6.18;;;;;;;23.07;57.06;101046.09;5003479;28;20041;-68
2021/06/02 07:18:27;;;;;;;14.95;5.60;;;;;;;23.05;57.02;101048.97;5009826;28;20041;-67
2021/06/02 07:20:54;;;;;;;10.23;5.10;;;;;;;23.05;56.67;101051.66;5009114;28;20073;-68
2021/06/02 07:23:20;;;;;;;17.60;5.35;;;;;;;23.04;56.47;101050.03;4997409;28;20397;-68
2021/06/02 07:25:46;;;;;;;14.43;5.43;;;;;;;23.03;56.33;101051.03;5001822;28;20066;-68
2021/06/02 07:28:13;;;;;;;10.65;5.38;;;;;;;23.03;55.69;101045.69;5010719;28;20061;-67
2021/06/02 07:30:39;;;;;;;14.00;5.55;;;;;;;23.00;55.55;101044.25;5009692;28;20046;-68
2021/06/02 07:33:06;;;;;;;8.52;4.90;;;;;;;23.00;55.64;101051.47;4990101;28;20736;-68
2021/06/02 07:35:32;;;;;;;11.55;4.85;;;;;;;22.98;55.19;101045.50;5009777;28;20048;-68
2021/06/02 07:37:58;;;;;;;8.00;5.28;;;;;;;22.97;55.18;101050.03;5008451;28;20454;-68
2021/06/02 07:40:23;;;;;;;11.43;5.35;;;;;;;22.98;54.71;101050.84;5006821;28;20062;-68
2021/06/02 07:42:49;;;;;;;7.47;5.10;;;;;;;22.97;54.61;101054.56;5008654;28;20140;-67
2021/06/02 07:45:16;;;;;;;11.07;4.93;;;;;;;22.96;54.31;101053.75;5002068;28;20116;-70
2021/06/02 07:47:41;;;;;;;18.42;6.78;;;;;;;22.95;54.37;101052.09;5008608;28;20034;-75
2021/06/02 07:50:08;;;;;;;9.50;6.10;;;;;;;22.94;54.18;101050.47;4990007;28;20037;-74
2021/06/02 07:52:33;;;;;;;13.25;6.82;;;;;;;22.93;53.79;101054.19;5006692;28;20057;-73
2021/06/02 07:54:59;;;;;;;17.25;7.25;;;;;;;22.93;54.02;101045.34;5008013;28;20038;-73
2021/06/02 07:57:25;;;;;;;18.75;6.38;;;;;;;22.92;54.03;101051.72;5004482;28;20037;-73
2021/06/02 07:59:51;;;;;;;14.32;6.15;;;;;;;22.92;54.29;101057.06;5010266;28;20481;-73
2021/06/02 08:02:16;;;;;;;21.60;8.48;;;;;;;22.91;54.19;101050.09;5004952;28;20037;-71
2021/06/02 08:04:42;;;;;;;18.88;7.10;;;;;;;22.90;53.89;101059.97;5006132;28;20041;-73
2021/06/02 08:07:08;;;;;;;22.70;8.05;;;;;;;22.90;53.88;101056.47;4974918;28;20042;-74
2021/06/02 08:09:36;;;;;;;22.52;7.68;;;;;;;22.90;53.53;101054.63;5004030;28;20393;-73
2021/06/02 08:12:05;;;;;;;16.77;7.45;;;;;;;22.89;53.79;101052.16;5005507;28;20038;-73
2021/06/02 08:14:30;;;;;;;17.45;7.45;;;;;;;22.88;53.33;101055.84;4999122;28;20041;-73
2021/06/02 08:16:56;;;;;;;15.20;7.38;;;;;;;22.87;53.55;101060.38;5008186;28;20030;-73
2021/06/02 08:19:21;;;;;;;16.55;7.88;;;;;;;22.86;53.26;101068.59;5005476;28;20121;-71
2021/06/02 08:21:47;;;;;;;14.65;6.70;;;;;;;22.86;53.23;101065.94;5001223;28;20038;-73
2021/06/02 08:24:12;;;;;;;14.80;6.70;;;;;;;22.85;53.49;101061.63;4995273;28;20109;-74
2021/06/02 08:26:40;;;;;;;12.50;6.22;;;;;;;22.84;53.45;101066.16;4991625;28;20061;-73
2021/06/02 08:29:06;;;;;;;15.50;6.75;;;;;;;22.85;53.22;101062.44;5006348;28;20088;-70
2021/06/02 08:31:32;;;;;;;11.95;6.57;;;;;;;22.85;52.89;101061.63;4997405;28;20041;-73
2021/06/02 08:33:59;;;;;;;13.52;6.13;;;;;;;22.84;52.95;101070.69;5009603;28;20093;-73
2021/06/02 08:36:26;;;;;;;13.82;6.40;;;;;;;22.84;53.11;101062.66;5007998;28;20529;-73
2021/06/02 08:38:51;;;;;;;15.25;6.45;;;;;;;22.83;52.66;101069.03;5008370;28;20366;-73
2021/06/02 08:41:17;;;;;;;12.77;6.50;;;;;;;22.82;52.82;101062.00;5004801;28;20084;-73
2021/06/02 08:43:44;;;;;;;12.80;6.63;;;;;;;22.82;52.79;101062.00;4986151;28;20038;-73
2021/06/02 08:46:10;;;;;;;9.43;5.95;;;;;;;22.81;52.44;101066.53;5009553;28;20030;-73
2021/06/02 08:48:37;;;;;;;13.82;6.47;;;;;;;22.79;52.60;101060.59;5003968;28;20445;-73
2021/06/02 08:51:03;;;;;;;9.95;5.88;;;;;;;22.79;52.50;101051.75;5009402;28;20088;-72
2021/06/02 08:53:29;;;;;;;12.30;5.88;;;;;;;22.77;52.37;101051.97;4998302;28;20050;-71
2021/06/02 08:55:54;;;;;;;9.60;6.68;;;;;;;22.76;52.17;101044.97;5007413;28;20038;-70
2021/06/02 08:58:22;;;;;;;13.27;6.95;;;;;;;22.76;52.06;101046.81;5007316;28;20105;-71
2021/06/02 09:00:49;;;;;;;12.32;6.60;;;;;;;22.74;52.41;101044.38;4998610;28;20109;-71
2021/06/02 09:03:15;;;;;;;11.70;6.00;;;;;;;22.72;52.41;101035.72;4997156;28;20035;-70
2021/06/02 09:05:40;;;;;;;9.55;6.03;;;;;;;22.73;52.12;101041.91;5009015;28;20767;-71
2021/06/02 09:08:11;;;;;;;13.13;6.82;;;;;;;22.71;51.96;101042.91;5007779;28;20029;-72
2021/06/02 09:10:43;;;;;;;9.15;6.28;;;;;;;22.68;51.93;101040.66;5005932;28;20069;-72
2021/06/02 09:13:21;;;;;;;8.77;5.95;;;;;;;22.67;51.90;101038.19;5000910;28;20203;-72
2021/06/02 09:15:48;;;;;;;12.70;6.68;;;;;;;22.70;51.86;101035.91;4997876;28;20342;-72
2021/06/02 09:18:17;;;;;;;10.48;6.50;;;;;;;22.68;51.79;101037.16;5001164;28;20030;-72
2021/06/02 09:20:42;;;;;;;9.20;6.00;;;;;;;22.67;51.89;101039.03;4995868;28;20030;-73
2021/06/02 09:23:31;;;;;;;11.68;6.65;;;;;;;22.63;51.71;101031.66;5004539;28;20523;-75
2021/06/02 09:26:19;;;;;;;10.18;6.68;;;;;;;22.62;51.70;101035.34;4995583;28;20464;-73
2021/06/02 09:28:57;;;;;;;11.25;6.50;;;;;;;22.62;52.16;101038.84;4992805;28;20035;-73
2021/06/02 09:31:35;;;;;;;14.77;6.85;;;;;;;22.64;51.89;101044.81;5002412;28;20109;-71
2021/06/02 09:34:06;;;;;;;9.43;5.90;;;;;;;22.64;51.88;101036.78;5004322;28;20046;-69
2021/06/02 09:36:39;;;;;;;10.70;6.57;;;;;;;22.65;52.02;101038.41;5006078;28;20042;-71
2021/06/02 09:39:07;;;;;;;10.23;6.63;;;;;;;22.65;51.92;101041.09;5004136;28;20034;-70
2021/06/02 09:41:39;;;;;;;11.18;6.80;;;;;;;22.63;51.97;101045.84;4998552;28;20330;-71
2021/06/02 09:44:29;;;;;;;12.15;7.15;;;;;;;22.62;52.07;101040.69;4999772;28;20034;-71
2021/06/02 09:47:00;;;;;;;11.25;7.15;;;;;;;22.62;51.93;101036.16;4998679;28;20041;-71
2021/06/02 09:49:27;;;;;;;10.57;6.57;;;;;;;22.64;51.57;101043.97;5001065;28;20149;-71
2021/06/02 09:51:53;;;;;;;13.90;7.28;;;;;;;22.63;51.78;101037.81;4993528;28;20127;-70
2021/06/02 09:54:23;;;;;;;9.98;6.53;;;;;;;22.62;51.67;101036.16;5001264;28;20109;-72
2021/06/02 09:56:51;;;;;;;11.65;6.68;;;;;;;22.62;51.96;101028.16;5004428;28;20100;-71
2021/06/02 09:59:18;;;;;;;11.23;6.68;;;;;;;22.61;51.82;101023.84;4992375;28;20070;-73
2021/06/02 10:01:51;;;;;;;13.23;7.13;;;;;;;22.58;51.48;101018.09;5002679;28;20116;-72
2021/06/02 10:04:18;;;;;;;13.93;7.55;;;;;;;22.58;51.42;101018.91;5002375;28;20038;-72
2021/06/02 10:06:45;;;;;;;12.68;7.15;;;;;;;22.57;51.54;101019.94;4990859;28;20038;-72
2021/06/02 10:09:10;;;;;;;12.48;6.75;;;;;;;22.58;51.32;101007.41;5005892;28;20038;-72
2021/06/02 10:11:37;;;;;;;11.45;6.65;;;;;;;22.57;51.29;100998.56;4980608;28;20046;-72
2021/06/02 10:14:10;;;;;;;12.07;6.55;;;;;;;22.57;51.49;100992.41;5006372;28;20446;-73
2021/06/02 10:16:40;;;;;;;10.88;6.70;;;;;;;22.56;51.44;100991.53;5008210;28;20115;-72
2021/06/02 10:19:06;;;;;;;9.35;6.47;;;;;;;22.56;51.11;100994.22;5007722;28;20038;-71
2021/06/02 10:21:43;;;;;;;14.18;6.63;;;;;;;22.53;51.21;100988.47;4998746;28;20038;-72
2021/06/02 10:24:09;;;;;;;10.98;6.50;;;;;;;22.56;51.26;100998.75;4999549;28;20045;-72
2021/06/02 10:26:35;;;;;;;13.35;7.53;;;;;;;22.54;51.13;100996.28;4993517;28;20480;-72
2021/06/02 10:29:00;;;;;;;10.93;7.05;;;;;;;22.53;51.18;101000.00;5002521;28;20048;-72
2021/06/02 10:31:26;;;;;;;15.35;7.03;;;;;;;22.53;51.40;101002.66;4962298;28;20034;-72
2021/06/02 10:33:51;;;;;;;14.50;6.95;;;;;;;22.52;51.33;100995.69;4998103;28;20335;-72
2021/06/02 10:36:17;;;;;;;9.52;6.68;;;;;;;22.52;51.57;101000.22;4997977;28;20030;-72
2021/06/02 10:38:47;;;;;;;13.23;7.18;;;;;;;22.52;51.47;101008.22;5007378;28;20353;-73
2021/06/02 10:41:27;;;;;;;9.85;6.28;;;;;;;22.51;51.30;100998.56;5003221;28;20109;-73
2021/06/02 10:44:00;;;;;;;13.82;6.25;;;;;;;22.52;51.24;101011.72;5003761;28;20100;-72
2021/06/02 10:46:27;;;;;;;9.52;6.00;;;;;;;22.53;51.14;101012.53;5004147;28;20494;-71
2021/06/02 10:48:55;;;;;;;13.45;6.78;;;;;;;22.52;51.14;101014.41;5007185;28;20041;-72
2021/06/02 10:51:25;;;;;;;15.05;8.10;;;;;;;22.51;51.18;101019.97;4999650;28;20048;-70
2021/06/02 10:54:21;;;;;;;12.50;6.28;;;;;;;22.47;51.11;101024.91;4997542;28;20124;-72
2021/06/02 10:56:55;;;;;;;10.70;6.97;;;;;;;22.49;51.21;101025.53;4997278;28;20041;-69
2021/06/02 10:59:26;;;;;;;11.23;6.47;;;;;;;22.49;51.09;101020.16;4995581;28;20085;-69
2021/06/02 11:02:17;;;;;;;13.93;7.28;;;;;;;22.46;50.79;101017.09;4998031;28;20029;-71
2021/06/02 11:05:06;;;;;;;12.70;6.78;;;;;;;22.46;50.98;101014.44;4993789;28;20049;-71
2021/06/02 11:07:33;;;;;;;14.27;6.65;;;;;;;22.48;50.71;101013.19;5009584;28;20481;-72
2021/06/02 11:10:05;;;;;;;12.55;6.57;;;;;;;22.46;50.88;101004.56;4987897;28;20381;-72
2021/06/02 11:12:48;;;;;;;12.10;6.88;;;;;;;22.45;50.76;101005.59;5005028;28;20037;-72
2021/06/02 11:15:35;;;;;;;11.90;7.07;;;;;;;22.43;50.98;100996.97;5006246;28;20056;-72
2021/06/02 11:18:10;;;;;;;11.90;6.82;;;;;;;22.44;50.90;100995.94;4995328;28;20057;-72
2021/06/02 11:20:38;;;;;;;;;;;;;;;22.38;50.87;100988.75;4997328;28;20029;-69
2021/06/02 11:23:05;;;;;;;12.13;6.85;;;;;;;22.44;50.79;100979.91;4994903;28;19909;-72
2021/06/02 11:25:32;;;;;;;12.98;7.30;;;;;;;22.43;50.73;100986.28;4986907;28;20458;-72
2021/06/02 11:27:57;;;;;;;10.80;7.28;;;;;;;22.44;50.84;100995.94;4994468;28;20034;-72
2021/06/02 11:30:24;;;;;;;10.88;6.75;;;;;;;22.43;51.11;100991.63;5000025;28;20041;-72
2021/06/02 11:32:51;;;;;;;14.23;6.68;;;;;;;22.44;50.84;100976.41;5005662;28;20108;-72
2021/06/02 11:35:17;;;;;;;14.20;6.45;;;;;;;22.44;50.90;100974.56;5006607;28;20037;-72
2021/06/02 11:37:43;;;;;;;11.43;7.03;;;;;;;22.46;50.68;100990.38;5003833;28;20461;-72
2021/06/02 11:40:11;;;;;;;12.73;6.97;;;;;;;22.47;51.00;100989.34;5010932;28;20061;-72
2021/06/02 11:42:46;;;;;;;15.10;7.15;;;;;;;22.45;50.97;100981.53;5005689;28;20038;-72
2021/06/02 11:45:18;;;;;;;13.40;6.82;;;;;;;22.45;50.59;100981.53;5010255;28;20060;-72
2021/06/02 11:47:48;;;;;;;12.50;6.97;;;;;;;22.48;51.12;100985.63;5004957;28;20022;-71
2021/06/02 11:50:16;;;;;;;13.38;6.35;;;;;;;22.48;50.91;100985.63;5008515;28;20030;-72
2021/06/02 11:52:43;;;;;;;12.07;6.93;;;;;;;22.47;50.92;100979.47;4993725;28;20034;-72
2021/06/02 11:55:15;;;;;;;11.05;6.78;;;;;;;22.47;51.07;100992.84;4997010;28;20454;-72
2021/06/02 11:57:45;;;;;;;12.65;6.95;;;;;;;22.46;50.73;100980.50;5002819;28;20061;-72
2021/06/02 12:00:16;;;;;;;13.75;6.97;;;;;;;22.46;50.76;100977.00;4996391;28;20541;-69